Will Rogers World Airport
KOKC : now visible

Airfield :











YOU CAN JOIN US ON...

 
LOGIN :

Register | Disclaimer

   EN    FR    IT 

 









Legend :    VFR   Marginal VFR   IFR   Intensive IFR   Very Intensive IFR
Visi :
Ceiling :
>= 8 km
>= 3000ft
5 to 8 km
1000 to 3000 ft
1500m to 5 km
500 to 1000 ft
800 to 1500m
200 to 500 ft
< 800m
< 200 ft
Symbols :   Thunderstorms  Fog  Heavy snow  Heavy precipitations  Wind > 20 kt






- Airport Elevation : 1295 ft
- IATA code : OKC


KOKC - Will Rogers World

CURRENT METAR :
  • 220452Z 17014KT 10SM CLR 21/17 A2993 RMK AO2 SLP123 T02060167

EXPIRED METARs :
  • 220352Z 16012KT 10SM CLR 21/17 A2994 RMK AO2 SLP128 T02060167
  • 220252Z 17012KT 10SM CLR 22/16 A2994 RMK AO2 SLP129 T02170161 51006

TAF KOKC
Valid from the 22 at 06:00 until the 23 at 06:00 UTC


220520Z 2206/2306 18014KT P6SM SKC WS015/19040KT
FM221300 18018G26KT P6SM SCT100
FM230000 17013G20KT P6SM SCT100
PROB30 2303/2306 4SM -SHRA BKN080
KZFW FIR / North America



MET'MAP, your aeronautical weather chart ! - Copyright ORBIFLY December 2007 - Disclaimer

ORBIFLY MET'MAP TEAM :

Programming & Development : Alexandra Zaïnal
Concept & original design : Baudouin d'Aumeries
Assistance for programming : Marc-Olivier Méhu
Technical & hardware support : Manuel Goepfert

Contact : metmap@orbifly.com




SOURCES & CREDITS :

   NOAA       Earth
Advisory